createdAt,value
2023-03-20T00:00:38.518Z,9.76
2023-03-20T00:05:54.290Z,8.85
2023-03-20T00:10:57.198Z,8.18
2023-03-20T00:16:01.104Z,7.60
2023-03-20T00:21:04.335Z,7.12
2023-03-20T00:26:12.760Z,6.73
2023-03-20T00:31:18.721Z,7.24
2023-03-20T00:36:22.282Z,9.51
2023-03-20T00:41:34.182Z,10.90
2023-03-20T00:46:39.476Z,11.04
2023-03-20T00:51:42.758Z,9.43
2023-03-20T00:56:55.529Z,8.33
2023-03-20T01:02:00.801Z,7.61
2023-03-20T01:07:05.809Z,7.00
2023-03-20T01:12:12.091Z,6.51
2023-03-20T01:17:20.315Z,6.15
2023-03-20T01:22:23.317Z,6.72
2023-03-20T01:27:26.328Z,9.06
2023-03-20T01:32:29.227Z,10.53
2023-03-20T01:37:33.395Z,11.32
2023-03-20T01:42:36.577Z,10.11
2023-03-20T01:47:39.885Z,8.87
2023-03-20T01:52:43.012Z,8.10
2023-03-20T01:57:46.830Z,7.52
2023-03-20T02:02:49.942Z,7.06
2023-03-20T02:08:32.779Z,6.67
2023-03-20T02:13:36.194Z,6.29
2023-03-20T02:18:41.971Z,6.07
2023-03-20T02:24:05.962Z,6.71
2023-03-20T02:29:46.748Z,9.21
2023-03-20T02:35:14.747Z,10.74
2023-03-20T02:40:55.226Z,11.65
2023-03-20T02:46:14.510Z,11.37
2023-03-20T02:51:36.579Z,9.61
2023-03-20T02:56:57.494Z,8.45
2023-03-20T03:02:16.859Z,7.61
2023-03-20T03:07:30.991Z,7.02
2023-03-20T03:12:41.364Z,6.59
2023-03-20T03:17:47.478Z,6.24
2023-03-20T03:22:51.073Z,6.70
2023-03-20T03:28:01.789Z,9.11
2023-03-20T03:33:28.589Z,10.53
2023-03-20T03:38:57.291Z,11.44
2023-03-20T03:44:12.385Z,11.11
2023-03-20T03:49:41.092Z,9.22
2023-03-20T03:54:53.524Z,7.92
2023-03-20T03:59:58.679Z,7.14
2023-03-20T04:05:03.605Z,6.52
2023-03-20T04:10:08.230Z,6.05
2023-03-20T04:15:13.246Z,5.68
2023-03-20T04:20:16.551Z,6.12
2023-03-20T04:25:23.090Z,8.46
2023-03-20T04:30:25.944Z,10.14
2023-03-20T04:35:28.842Z,10.61
2023-03-20T04:40:31.856Z,9.01
2023-03-20T04:45:35.012Z,7.87
2023-03-20T04:50:38.372Z,7.15
2023-03-20T04:55:41.581Z,6.63
2023-03-20T05:00:45.448Z,7.12
2023-03-20T05:05:48.442Z,9.57
2023-03-20T05:10:52.550Z,10.84
2023-03-20T05:15:55.447Z,10.89
2023-03-20T05:20:58.271Z,9.45
2023-03-20T05:26:01.283Z,8.61
2023-03-20T05:31:04.440Z,8.15
2023-03-20T05:36:08.319Z,8.01
2023-03-20T05:41:11.506Z,7.88
2023-03-20T05:46:15.005Z,8.54
2023-03-20T05:51:18.026Z,10.80
2023-03-20T05:56:21.262Z,11.95
2023-03-20T06:01:24.252Z,11.25
2023-03-20T06:06:27.154Z,10.90
2023-03-20T06:11:30.261Z,10.51
2023-03-20T06:16:34.701Z,10.04
2023-03-20T06:21:37.810Z,9.65
2023-03-20T06:26:41.033Z,9.35
2023-03-20T06:31:44.028Z,9.45
2023-03-20T06:36:48.682Z,11.60
2023-03-20T06:41:51.700Z,12.33
2023-03-20T06:46:54.637Z,11.28
2023-03-20T06:51:57.743Z,11.25
2023-03-20T06:57:00.803Z,12.00
2023-03-20T07:02:04.758Z,13.44
2023-03-20T07:07:07.636Z,14.90
2023-03-20T07:12:14.666Z,16.04
2023-03-20T07:17:18.079Z,16.27
2023-03-20T07:22:26.838Z,15.94
2023-03-20T07:27:30.067Z,15.73
2023-03-20T07:32:33.592Z,15.39
2023-03-20T07:37:36.635Z,15.14
2023-03-20T07:42:39.901Z,15.23
2023-03-20T07:47:44.106Z,15.01
2023-03-20T07:52:48.384Z,14.55
2023-03-20T07:57:51.596Z,14.04
2023-03-20T08:02:54.614Z,13.37
2023-03-20T08:07:57.636Z,12.91
2023-03-20T08:13:01.114Z,12.52
2023-03-20T08:18:04.165Z,12.22
2023-03-20T08:23:08.620Z,11.91
2023-03-20T08:28:11.851Z,11.65
2023-03-20T08:33:17.270Z,11.40
2023-03-20T08:38:20.695Z,11.20
2023-03-20T08:43:23.701Z,11.02
2023-03-20T08:48:27.219Z,10.90
2023-03-20T08:53:30.428Z,10.72
2023-03-20T08:58:33.435Z,10.62
2023-03-20T09:03:37.344Z,10.54
2023-03-20T09:08:40.264Z,10.53
2023-03-20T09:13:43.175Z,12.05
2023-03-20T09:18:46.485Z,13.48
2023-03-20T09:23:49.488Z,12.55
2023-03-20T09:28:53.110Z,11.97
2023-03-20T09:33:56.017Z,11.68
2023-03-20T09:38:59.126Z,11.51
2023-03-20T09:44:14.669Z,12.39
2023-03-20T09:49:59.805Z,14.43
2023-03-20T09:55:13.208Z,13.72
2023-03-20T10:00:20.483Z,13.02
2023-03-20T10:05:27.486Z,12.51
2023-03-20T10:10:49.523Z,12.04
2023-03-20T10:16:03.438Z,11.87
2023-03-20T10:21:18.944Z,12.68
2023-03-20T10:26:24.516Z,14.64
2023-03-20T10:32:08.261Z,14.20
2023-03-20T10:37:34.674Z,14.32
2023-03-20T10:42:45.925Z,14.86
2023-03-20T10:47:52.750Z,14.97
2023-03-20T10:52:57.290Z,15.17
2023-03-20T10:58:10.918Z,15.27
2023-03-20T11:03:23.377Z,15.34
2023-03-20T11:08:34.262Z,15.13
2023-03-20T11:13:42.596Z,14.75
2023-03-20T11:18:46.841Z,14.27
2023-03-20T11:23:51.195Z,13.80
2023-03-20T11:29:00.143Z,14.21
2023-03-20T11:34:15.124Z,15.36
2023-03-20T11:39:24.679Z,14.32
2023-03-20T11:44:29.121Z,14.01
2023-03-20T11:49:45.856Z,15.38
2023-03-20T11:54:54.707Z,14.65
2023-03-20T11:59:58.283Z,14.83
2023-03-20T12:05:01.531Z,15.92
2023-03-20T12:10:08.172Z,14.50
2023-03-20T12:15:17.179Z,14.78
2023-03-20T12:20:37.107Z,16.16
2023-03-20T12:25:58.299Z,15.22
2023-03-20T12:31:05.968Z,16.10
2023-03-20T12:36:18.645Z,16.44
2023-03-20T12:41:53.914Z,15.21
2023-03-20T12:47:07.364Z,15.95
2023-03-20T12:52:19.383Z,17.23
2023-03-20T12:57:37.865Z,17.02
2023-03-20T13:03:06.288Z,16.63
2023-03-20T13:08:17.557Z,16.41
2023-03-20T13:13:33.995Z,15.92
2023-03-20T13:19:03.666Z,17.29
2023-03-20T13:24:26.788Z,17.09
2023-03-20T13:29:51.086Z,16.84
2023-03-20T13:35:19.187Z,17.51
2023-03-20T13:40:35.917Z,17.16
2023-03-20T13:45:42.010Z,16.74
2023-03-20T13:51:02.919Z,16.37
2023-03-20T13:56:14.939Z,16.67
2023-03-20T14:02:18.069Z,16.90
2023-03-20T14:07:39.594Z,16.27
2023-03-20T14:12:42.496Z,16.79
2023-03-20T14:17:48.952Z,18.69
2023-03-20T14:22:52.515Z,19.14
2023-03-20T14:28:00.596Z,17.65
2023-03-20T14:33:07.759Z,16.50
2023-03-20T14:38:44.842Z,15.74
2023-03-20T14:44:03.828Z,15.05
2023-03-20T14:49:44.518Z,15.21
2023-03-20T14:54:54.788Z,17.26
2023-03-20T14:59:57.988Z,16.91
2023-03-20T15:05:01.024Z,15.84
2023-03-20T15:10:06.478Z,15.10
2023-03-20T15:15:25.249Z,15.30
2023-03-20T15:20:32.997Z,17.00
2023-03-20T15:25:41.144Z,16.06
2023-03-20T15:30:46.961Z,15.13
2023-03-20T15:35:52.016Z,16.53
2023-03-20T15:40:55.346Z,16.62
2023-03-20T15:46:17.027Z,15.09
2023-03-20T15:51:25.516Z,14.96
2023-03-20T15:56:28.748Z,16.40
2023-03-20T16:01:33.111Z,15.65
2023-03-20T16:06:36.068Z,14.40
2023-03-20T16:11:42.047Z,14.49
2023-03-20T16:16:49.785Z,16.11
2023-03-20T16:21:59.555Z,15.81
2023-03-20T16:27:07.451Z,14.32
2023-03-20T16:32:28.057Z,14.53
2023-03-20T16:37:37.608Z,16.12
2023-03-20T16:42:41.165Z,15.45
2023-03-20T16:47:46.324Z,14.17
2023-03-20T16:52:57.925Z,14.69
2023-03-20T16:58:06.153Z,15.75
2023-03-20T17:03:18.268Z,16.05
2023-03-20T17:08:45.640Z,14.46
2023-03-20T17:13:48.948Z,13.31
2023-03-20T17:19:14.894Z,14.34
2023-03-20T17:24:18.467Z,14.74
2023-03-20T17:29:21.620Z,13.29
2023-03-20T17:34:24.835Z,12.83
2023-03-20T17:39:27.732Z,14.29
2023-03-20T17:44:30.648Z,15.13
2023-03-20T17:49:33.546Z,15.10
2023-03-20T17:54:36.657Z,13.49
2023-03-20T17:59:39.563Z,12.27
2023-03-20T18:04:42.549Z,12.20
2023-03-20T18:09:46.819Z,13.79
2023-03-20T18:14:49.812Z,14.67
2023-03-20T18:19:53.842Z,15.26
2023-03-20T18:24:56.852Z,15.68
2023-03-20T18:29:59.812Z,14.64
2023-03-20T18:35:02.670Z,13.03
2023-03-20T18:40:09.053Z,11.96
2023-03-20T18:45:13.149Z,11.19
2023-03-20T18:50:30.475Z,11.37
2023-03-20T18:55:35.068Z,13.43
2023-03-20T19:00:40.582Z,14.58
2023-03-20T19:05:43.646Z,15.40
2023-03-20T19:10:47.724Z,14.95
2023-03-20T19:15:50.725Z,12.93
2023-03-20T19:20:58.295Z,11.61
2023-03-20T19:26:01.758Z,11.52
2023-03-20T19:31:04.854Z,13.18
2023-03-20T19:36:21.457Z,14.11
2023-03-20T19:41:25.227Z,14.71
2023-03-20T19:46:39.607Z,15.15
2023-03-20T19:51:44.082Z,14.16
2023-03-20T19:56:47.327Z,12.48
2023-03-20T20:01:51.126Z,12.30
2023-03-20T20:06:55.687Z,13.99
2023-03-20T20:12:05.416Z,14.52
2023-03-20T20:17:08.324Z,14.84
2023-03-20T20:22:27.794Z,14.30
2023-03-20T20:27:31.721Z,12.33
2023-03-20T20:32:36.759Z,12.04
2023-03-20T20:43:10.388Z,14.58
2023-03-20T20:48:13.974Z,12.59
2023-03-20T20:53:17.185Z,11.93
2023-03-20T20:58:20.097Z,13.43
2023-03-20T21:03:23.008Z,14.34
2023-03-20T21:08:25.912Z,14.97
2023-03-20T21:13:29.011Z,14.69
2023-03-20T21:18:31.979Z,12.49
2023-03-20T21:23:35.436Z,12.33
2023-03-20T21:28:38.475Z,13.54
2023-03-20T21:33:41.908Z,14.20
2023-03-20T21:39:06.968Z,14.61
2023-03-20T21:44:16.388Z,13.38
2023-03-20T22:11:56.588Z,12.91
2023-03-20T22:17:28.982Z,11.26
2023-03-20T22:23:10.821Z,12.63
2023-03-20T22:27:54.082Z,13.43
2023-03-20T22:48:39.132Z,12.50
2023-03-20T22:53:42.035Z,12.98
2023-03-20T22:58:45.143Z,12.04
2023-03-20T23:03:48.049Z,10.39
2023-03-20T23:08:56.535Z,10.24
2023-03-20T23:14:00.973Z,11.93
2023-03-20T23:19:04.139Z,12.77
2023-03-20T23:24:07.552Z,12.87
2023-03-20T23:29:11.075Z,11.10
2023-03-20T23:34:15.715Z,10.42
2023-03-20T23:39:20.254Z,11.78
2023-03-20T23:44:23.486Z,12.44
2023-03-20T23:49:26.576Z,12.72
2023-03-20T23:54:29.697Z,12.92
2023-03-20T23:59:32.591Z,12.74
